createdAt,value
2022-08-17T00:00:43.244Z,92.20
2022-08-17T00:03:13.669Z,92.20
2022-08-17T00:05:49.397Z,92.20
2022-08-17T00:08:19.527Z,92.20
2022-08-17T00:10:47.799Z,92.20
2022-08-17T00:13:25.892Z,92.20
2022-08-17T00:15:58.909Z,92.20
2022-08-17T00:19:01.662Z,92.20
2022-08-17T00:21:23.859Z,92.20
2022-08-17T00:23:53.622Z,92.20
2022-08-17T00:26:43.999Z,92.20
2022-08-17T00:29:09.881Z,92.20
2022-08-17T00:31:47.241Z,92.20
2022-08-17T00:34:14.566Z,92.20
2022-08-17T00:36:41.823Z,92.20
2022-08-17T00:39:09.102Z,92.20
2022-08-17T00:41:36.501Z,92.20
2022-08-17T00:44:10.294Z,92.20
2022-08-17T00:46:44.572Z,92.20
2022-08-17T00:49:13.650Z,92.20
2022-08-17T00:51:44.000Z,92.20
2022-08-17T00:54:33.579Z,92.20
2022-08-17T00:57:15.536Z,92.20
2022-08-17T00:59:51.092Z,92.20
2022-08-17T01:02:30.503Z,92.20
2022-08-17T01:05:02.022Z,92.20
2022-08-17T01:07:29.279Z,92.20
2022-08-17T01:09:56.811Z,92.20
2022-08-17T01:12:24.129Z,92.20
2022-08-17T01:14:51.481Z,92.20
2022-08-17T01:17:18.869Z,92.20
2022-08-17T01:19:46.277Z,92.20
2022-08-17T01:22:14.549Z,92.20
2022-08-17T01:24:45.203Z,92.20
2022-08-17T01:27:14.029Z,92.20
2022-08-17T01:29:44.932Z,92.20
2022-08-17T01:32:12.935Z,92.20
2022-08-17T01:34:43.322Z,92.20
2022-08-17T01:37:18.269Z,92.20
2022-08-17T01:39:58.185Z,92.20
2022-08-17T01:42:56.432Z,92.20
2022-08-17T01:45:27.049Z,92.20
2022-08-17T01:47:55.689Z,92.20
2022-08-17T01:50:27.669Z,92.20
2022-08-17T01:53:00.209Z,92.20
2022-08-17T01:55:37.210Z,92.20
2022-08-17T01:58:09.161Z,92.20
2022-08-17T02:00:46.774Z,92.20
2022-08-17T02:03:27.755Z,92.20
2022-08-17T02:05:55.349Z,92.20
2022-08-17T02:08:38.934Z,92.20
2022-08-17T02:11:14.919Z,92.20
2022-08-17T02:13:46.647Z,92.20
2022-08-17T02:16:15.357Z,92.20
2022-08-17T02:18:42.949Z,92.20
2022-08-17T02:21:11.402Z,92.20
2022-08-17T02:23:43.971Z,92.20
2022-08-17T02:26:24.049Z,92.20
2022-08-17T02:28:54.233Z,92.20
2022-08-17T02:31:21.676Z,92.20
2022-08-17T02:33:56.599Z,92.20
2022-08-17T02:36:33.010Z,92.20
2022-08-17T02:39:07.993Z,92.20
2022-08-17T02:41:35.830Z,92.20
2022-08-17T02:44:03.491Z,92.20
2022-08-17T02:46:31.338Z,92.20
2022-08-17T02:48:59.603Z,92.20
2022-08-17T02:51:27.994Z,92.20
2022-08-17T02:54:38.799Z,92.20
2022-08-17T02:56:43.355Z,92.20
2022-08-17T02:59:10.853Z,92.20
2022-08-17T03:01:38.819Z,92.20
2022-08-17T03:04:06.162Z,92.20
2022-08-17T03:06:33.487Z,92.20
2022-08-17T03:09:00.860Z,92.20
2022-08-17T03:11:28.304Z,92.20
2022-08-17T03:13:55.798Z,92.20
2022-08-17T03:16:23.327Z,92.20
2022-08-17T03:18:50.864Z,92.20
2022-08-17T03:21:18.145Z,92.20
2022-08-17T03:23:45.519Z,92.20
2022-08-17T03:26:15.477Z,92.20
2022-08-17T03:28:43.663Z,92.20
2022-08-17T03:31:10.977Z,92.20
2022-08-17T03:33:38.349Z,92.20
2022-08-17T03:36:06.101Z,92.20
2022-08-17T03:38:38.977Z,92.20
2022-08-17T03:41:07.376Z,92.20
2022-08-17T03:43:35.423Z,92.20
2022-08-17T03:46:34.229Z,92.20
2022-08-17T03:49:26.493Z,92.20
2022-08-17T03:52:13.533Z,92.20
2022-08-17T03:55:00.749Z,92.20
2022-08-17T03:57:28.158Z,92.20
2022-08-17T03:59:56.246Z,92.20
2022-08-17T04:02:32.237Z,92.20
2022-08-17T04:05:00.572Z,92.20
2022-08-17T04:07:31.165Z,92.20
2022-08-17T04:09:59.721Z,92.20
2022-08-17T04:12:31.219Z,92.20
2022-08-17T04:14:59.316Z,92.20
2022-08-17T04:17:28.716Z,92.20
2022-08-17T04:19:56.773Z,92.20
2022-08-17T04:22:32.233Z,92.20
2022-08-17T04:25:21.511Z,92.20
2022-08-17T04:27:49.130Z,92.20
2022-08-17T04:30:16.521Z,92.20
2022-08-17T04:33:07.248Z,92.20
2022-08-17T04:35:48.025Z,92.20
2022-08-17T04:38:22.814Z,92.20
2022-08-17T04:41:09.286Z,92.20
2022-08-17T04:43:38.963Z,92.20
2022-08-17T04:46:10.434Z,92.20
2022-08-17T04:48:41.387Z,92.20
2022-08-17T04:51:12.524Z,92.20
2022-08-17T04:53:42.304Z,92.20
2022-08-17T04:56:15.987Z,92.20
2022-08-17T04:58:46.842Z,92.20
2022-08-17T05:01:15.558Z,92.20
2022-08-17T05:03:44.229Z,92.20
2022-08-17T05:06:11.870Z,92.20
2022-08-17T05:08:39.389Z,92.20
2022-08-17T05:11:06.913Z,92.20
2022-08-17T05:13:34.271Z,92.20
2022-08-17T05:16:05.749Z,92.20
2022-08-17T05:18:33.516Z,92.20
2022-08-17T05:21:01.002Z,92.20
2022-08-17T05:23:42.025Z,92.20
2022-08-17T05:26:25.805Z,92.20
2022-08-17T05:28:55.502Z,92.20
2022-08-17T05:31:24.994Z,92.20
2022-08-17T05:33:53.537Z,92.20
2022-08-17T05:36:43.093Z,92.20
2022-08-17T05:39:08.391Z,92.20
2022-08-17T05:41:42.929Z,92.20
2022-08-17T05:44:10.776Z,92.20
2022-08-17T05:46:42.251Z,92.20
2022-08-17T05:49:10.255Z,92.20
2022-08-17T05:52:13.355Z,92.20
2022-08-17T05:55:37.203Z,92.20
2022-08-17T05:58:10.311Z,92.20
2022-08-17T06:00:51.934Z,92.20
2022-08-17T06:03:37.931Z,92.20
2022-08-17T06:06:42.475Z,92.20
2022-08-17T06:09:26.646Z,92.20
2022-08-17T06:12:24.931Z,92.20
2022-08-17T06:15:11.115Z,92.20
2022-08-17T06:17:39.350Z,92.20
2022-08-17T06:20:12.008Z,90.50
2022-08-17T06:22:46.582Z,89.30
2022-08-17T06:25:35.250Z,89.10
2022-08-17T06:28:08.999Z,89.40
2022-08-17T06:31:07.388Z,86.70
2022-08-17T06:33:39.665Z,88.10
2022-08-17T06:36:36.202Z,87.20
2022-08-17T06:39:18.689Z,86.40
2022-08-17T06:41:49.841Z,84.20
2022-08-17T06:44:43.708Z,84.40
2022-08-17T06:47:33.850Z,82.70
2022-08-17T06:50:08.523Z,84.00
2022-08-17T06:52:47.496Z,83.10
2022-08-17T06:55:26.501Z,80.50
2022-08-17T06:57:59.441Z,82.50
2022-08-17T07:00:40.986Z,81.30
2022-08-17T07:03:38.166Z,80.90
2022-08-17T07:06:14.692Z,80.70
2022-08-17T07:08:51.115Z,81.30
2022-08-17T07:11:51.276Z,80.90
2022-08-17T07:14:53.356Z,79.20
2022-08-17T07:17:46.372Z,78.60
2022-08-17T07:20:15.386Z,80.80
2022-08-17T07:23:13.935Z,79.60
2022-08-17T07:25:41.324Z,79.40
2022-08-17T07:28:08.652Z,78.20
2022-08-17T07:30:51.592Z,79.80
2022-08-17T07:33:28.992Z,79.20
2022-08-17T07:35:58.777Z,78.50
2022-08-17T07:38:34.777Z,77.60
2022-08-17T07:41:06.538Z,76.60
2022-08-17T07:43:40.194Z,75.00
2022-08-17T07:46:41.950Z,74.20
2022-08-17T07:49:14.938Z,72.90
2022-08-17T07:51:47.933Z,72.80
2022-08-17T07:54:22.743Z,73.80
2022-08-17T07:56:54.944Z,73.00
2022-08-17T07:59:28.609Z,73.70
2022-08-17T08:02:04.017Z,73.90
2022-08-17T08:07:32.283Z,73.10
2022-08-17T08:10:01.630Z,72.90
2022-08-17T08:12:44.504Z,72.20
2022-08-17T08:15:18.963Z,71.20
2022-08-17T08:17:58.819Z,71.60
2022-08-17T08:21:00.692Z,70.80
2022-08-17T08:23:59.875Z,69.80
2022-08-17T08:26:48.287Z,69.60
2022-08-17T08:29:40.232Z,68.00
2022-08-17T08:32:20.782Z,68.10
2022-08-17T08:35:08.717Z,69.20
2022-08-17T08:37:56.450Z,68.70
2022-08-17T08:40:46.759Z,68.00
2022-08-17T08:43:25.037Z,66.40
2022-08-17T08:46:25.601Z,66.80
2022-08-17T08:49:10.239Z,65.50
2022-08-17T08:51:51.609Z,65.10
2022-08-17T08:54:52.408Z,64.60
2022-08-17T08:57:53.801Z,66.20
2022-08-17T09:00:24.187Z,65.80
2022-08-17T09:03:20.313Z,65.40
2022-08-17T09:06:37.399Z,64.70
2022-08-17T09:09:42.378Z,64.70
2022-08-17T09:12:20.340Z,63.80
2022-08-17T09:14:56.690Z,63.50
2022-08-17T09:19:02.231Z,61.70
2022-08-17T09:21:18.082Z,64.30
2022-08-17T09:24:20.660Z,63.10
2022-08-17T09:27:03.204Z,63.10
2022-08-17T09:29:35.505Z,62.80
2022-08-17T09:32:12.991Z,62.40
2022-08-17T09:34:55.092Z,63.10
2022-08-17T09:37:43.275Z,62.00
2022-08-17T09:40:15.213Z,62.10
2022-08-17T09:43:04.777Z,62.20
2022-08-17T09:45:51.643Z,62.30
2022-08-17T09:48:31.413Z,61.60
2022-08-17T09:51:18.844Z,61.60
2022-08-17T09:53:46.266Z,61.00
2022-08-17T09:56:34.943Z,60.60
2022-08-17T09:59:17.341Z,59.90
2022-08-17T10:02:26.563Z,60.80
2022-08-17T10:05:07.902Z,60.30
2022-08-17T10:07:55.906Z,59.70
2022-08-17T10:10:36.167Z,62.00
2022-08-17T10:13:18.817Z,59.90
2022-08-17T10:16:09.405Z,57.80
2022-08-17T10:19:21.135Z,57.40
2022-08-17T10:22:14.927Z,58.10
2022-08-17T10:25:21.870Z,56.40
2022-08-17T10:28:05.732Z,55.00
2022-08-17T10:30:43.808Z,54.00
2022-08-17T10:33:28.373Z,54.60
2022-08-17T10:35:58.462Z,53.90
2022-08-17T10:38:31.929Z,55.30
2022-08-17T10:41:06.176Z,55.30
2022-08-17T10:44:40.357Z,55.90
2022-08-17T10:47:12.105Z,57.00
2022-08-17T10:49:54.453Z,55.40
2022-08-17T10:52:27.700Z,55.10
2022-08-17T10:54:58.768Z,54.00
2022-08-17T10:57:42.952Z,53.10
2022-08-17T11:00:16.095Z,53.00
2022-08-17T11:02:50.674Z,53.50
2022-08-17T11:05:55.839Z,53.50
2022-08-17T11:08:43.495Z,53.00
2022-08-17T11:11:39.210Z,51.80
2022-08-17T11:14:21.683Z,51.40
2022-08-17T11:17:11.545Z,53.00
2022-08-17T11:19:45.288Z,51.20
2022-08-17T11:22:34.343Z,50.10
2022-08-17T11:25:16.271Z,48.30
2022-08-17T11:27:45.563Z,49.70
2022-08-17T11:30:21.097Z,49.60
2022-08-17T11:32:54.634Z,50.60
2022-08-17T11:35:22.549Z,53.30
2022-08-17T11:38:16.018Z,52.90
2022-08-17T11:41:05.079Z,53.00
2022-08-17T11:44:02.052Z,52.70
2022-08-17T11:47:00.495Z,51.40
2022-08-17T11:49:58.814Z,50.30
2022-08-17T11:52:45.983Z,50.50
2022-08-17T11:55:40.745Z,49.90
2022-08-17T11:58:30.031Z,47.30
2022-08-17T12:01:02.260Z,49.80
2022-08-17T12:03:32.258Z,50.30
2022-08-17T12:06:17.775Z,49.60
2022-08-17T12:08:55.159Z,48.70
2022-08-17T12:12:13.639Z,49.40
2022-08-17T12:17:41.328Z,49.90
2022-08-17T12:20:15.279Z,49.30
2022-08-17T12:23:17.687Z,50.50
2022-08-17T12:25:51.111Z,52.80
2022-08-17T12:28:30.579Z,52.90
2022-08-17T12:31:08.089Z,53.30
2022-08-17T12:33:37.843Z,53.30
2022-08-17T12:36:08.951Z,53.40
2022-08-17T12:38:38.572Z,52.50
2022-08-17T12:41:26.695Z,53.60
2022-08-17T12:44:19.540Z,53.40
2022-08-17T12:46:53.090Z,54.00
2022-08-17T12:49:30.948Z,54.00
2022-08-17T12:52:25.244Z,54.70
2022-08-17T12:55:03.335Z,54.20
2022-08-17T12:57:39.746Z,53.30
2022-08-17T13:00:17.967Z,54.30
2022-08-17T13:02:50.526Z,54.20
2022-08-17T13:05:36.379Z,54.20
2022-08-17T13:08:18.958Z,54.40
2022-08-17T13:10:57.166Z,53.90
2022-08-17T13:13:35.268Z,54.30
2022-08-17T13:16:04.768Z,53.60
2022-08-17T13:18:34.863Z,54.00
2022-08-17T13:21:02.592Z,53.70
2022-08-17T13:23:32.443Z,54.40
2022-08-17T13:26:16.164Z,54.60
2022-08-17T13:28:51.925Z,52.20
2022-08-17T13:31:28.284Z,53.60
2022-08-17T13:34:19.054Z,54.60
2022-08-17T13:36:47.960Z,54.80
2022-08-17T13:39:24.056Z,53.90
2022-08-17T13:41:54.173Z,54.00
2022-08-17T13:44:40.737Z,54.50
2022-08-17T13:47:20.179Z,55.90
2022-08-17T13:49:49.235Z,53.80
2022-08-17T13:52:52.366Z,55.40
2022-08-17T13:55:23.072Z,55.70
2022-08-17T13:58:05.070Z,55.10
2022-08-17T14:00:36.834Z,55.20
2022-08-17T14:03:05.795Z,53.50
2022-08-17T14:05:38.062Z,53.60
2022-08-17T14:08:07.216Z,54.50
2022-08-17T14:10:36.772Z,54.40
2022-08-17T14:13:05.055Z,54.10
2022-08-17T14:15:56.108Z,54.40
2022-08-17T14:18:34.272Z,54.50
2022-08-17T14:21:09.007Z,55.00
2022-08-17T14:23:37.467Z,53.50
2022-08-17T14:26:05.501Z,54.90
2022-08-17T14:28:32.840Z,53.50
2022-08-17T14:31:03.815Z,54.60
2022-08-17T14:33:31.114Z,55.00
2022-08-17T14:35:58.449Z,54.00
2022-08-17T14:38:26.098Z,54.60
2022-08-17T14:40:54.096Z,54.50
2022-08-17T14:43:21.518Z,54.90
2022-08-17T14:45:49.185Z,55.00
2022-08-17T14:48:17.414Z,55.90
2022-08-17T14:50:46.448Z,56.30
2022-08-17T14:53:16.003Z,56.90
2022-08-17T14:55:46.895Z,57.40
2022-08-17T14:58:14.640Z,58.10
2022-08-17T15:00:46.425Z,58.70
2022-08-17T15:03:14.801Z,57.90
2022-08-17T15:05:44.440Z,58.40
2022-08-17T15:08:11.792Z,58.50
2022-08-17T15:10:39.495Z,59.10
2022-08-17T15:13:20.196Z,59.10
2022-08-17T15:15:48.576Z,59.40
2022-08-17T15:18:16.564Z,58.20
2022-08-17T15:20:45.163Z,58.10
2022-08-17T15:23:16.960Z,58.90
2022-08-17T15:25:45.322Z,58.70
2022-08-17T15:28:12.837Z,59.00
2022-08-17T15:30:44.993Z,58.00
2022-08-17T15:33:17.764Z,58.80
2022-08-17T15:35:45.652Z,57.70
2022-08-17T15:38:13.639Z,58.00
2022-08-17T15:40:46.683Z,58.50
2022-08-17T15:43:20.117Z,57.20
2022-08-17T15:46:02.159Z,58.50
2022-08-17T15:48:44.023Z,58.90
2022-08-17T15:51:16.355Z,59.30
2022-08-17T15:53:46.875Z,59.00
2022-08-17T15:56:15.187Z,59.30
2022-08-17T15:58:44.451Z,59.20
2022-08-17T16:01:17.003Z,59.50
2022-08-17T16:04:04.213Z,59.30
2022-08-17T16:06:32.344Z,59.00
2022-08-17T16:09:00.710Z,59.60
2022-08-17T16:11:27.996Z,59.90
2022-08-17T16:13:56.147Z,60.20
2022-08-17T16:16:24.743Z,60.00
2022-08-17T16:18:53.684Z,60.10
2022-08-17T16:21:27.082Z,60.20
2022-08-17T16:24:05.133Z,60.60
2022-08-17T16:26:40.847Z,60.40
2022-08-17T16:29:08.394Z,60.40
2022-08-17T16:31:37.822Z,61.00
2022-08-17T16:34:16.970Z,61.20
2022-08-17T16:36:55.092Z,60.80
2022-08-17T16:39:29.544Z,59.90
2022-08-17T16:41:57.654Z,59.50
2022-08-17T16:44:27.796Z,59.80
2022-08-17T16:46:55.112Z,61.40
2022-08-17T16:49:36.238Z,61.20
2022-08-17T16:52:08.059Z,61.00
2022-08-17T16:54:38.567Z,61.20
2022-08-17T16:57:05.912Z,61.40
2022-08-17T16:59:41.138Z,61.70
2022-08-17T17:02:13.671Z,62.10
2022-08-17T17:04:48.411Z,62.60
2022-08-17T17:07:26.029Z,63.30
2022-08-17T17:09:56.071Z,63.90
2022-08-17T17:13:01.130Z,64.10
2022-08-17T17:15:13.111Z,64.40
2022-08-17T17:17:41.969Z,65.70
2022-08-17T17:20:23.147Z,65.90
2022-08-17T17:23:39.428Z,67.30
2022-08-17T17:26:34.598Z,67.00
2022-08-17T17:29:25.968Z,67.70
2022-08-17T17:32:17.296Z,67.00
2022-08-17T17:34:51.004Z,67.50
2022-08-17T17:37:34.834Z,67.80
2022-08-17T17:40:13.109Z,69.40
2022-08-17T17:42:42.473Z,70.50
2022-08-17T17:45:31.575Z,70.50
2022-08-17T17:47:58.954Z,70.40
2022-08-17T17:50:36.753Z,71.40
2022-08-17T17:53:12.933Z,71.30
2022-08-17T17:55:50.832Z,72.00
2022-08-17T17:58:42.937Z,71.60
2022-08-17T18:01:19.360Z,71.30
2022-08-17T18:04:15.671Z,70.90
2022-08-17T18:07:12.457Z,71.10
2022-08-17T18:10:01.120Z,73.90
2022-08-17T18:12:46.407Z,74.10
2022-08-17T18:15:36.561Z,75.20
2022-08-17T18:18:40.019Z,75.40
2022-08-17T18:21:19.623Z,74.40
2022-08-17T18:24:01.571Z,74.60
2022-08-17T18:26:56.672Z,75.40
2022-08-17T18:29:34.612Z,75.90
2022-08-17T18:32:26.814Z,76.50
2022-08-17T18:34:57.866Z,77.20
2022-08-17T18:37:43.201Z,77.30
2022-08-17T18:40:19.882Z,77.20
2022-08-17T18:43:00.499Z,77.00
2022-08-17T18:45:47.253Z,77.10
2022-08-17T18:48:28.706Z,78.00
2022-08-17T18:51:18.340Z,77.50
2022-08-17T18:53:46.352Z,76.00
2022-08-17T18:56:36.395Z,76.80
2022-08-17T18:59:12.253Z,78.20
2022-08-17T19:02:05.071Z,78.40
2022-08-17T19:05:11.312Z,78.30
2022-08-17T19:07:45.340Z,79.50
2022-08-17T19:10:22.034Z,80.80
2022-08-17T19:12:55.528Z,81.50
2022-08-17T19:15:36.226Z,81.90
2022-08-17T19:18:36.329Z,81.60
2022-08-17T19:21:24.472Z,82.40
2022-08-17T19:23:59.857Z,83.60
2022-08-17T19:26:54.010Z,83.10
2022-08-17T19:29:47.153Z,82.70
2022-08-17T19:32:17.820Z,82.90
2022-08-17T19:34:45.202Z,82.40
2022-08-17T19:37:33.241Z,83.00
2022-08-17T19:40:41.767Z,83.30
2022-08-17T19:43:23.715Z,83.30
2022-08-17T19:46:07.372Z,84.00
2022-08-17T19:49:13.047Z,84.80
2022-08-17T19:51:49.300Z,85.30
2022-08-17T19:54:25.178Z,86.10
2022-08-17T19:57:13.860Z,86.30
2022-08-17T20:00:11.232Z,86.30
2022-08-17T20:03:05.919Z,86.10
2022-08-17T20:06:11.567Z,86.40
2022-08-17T20:08:48.417Z,86.90
2022-08-17T20:11:28.512Z,87.00
2022-08-17T20:14:10.134Z,86.70
2022-08-17T20:16:37.442Z,86.60
2022-08-17T20:19:06.831Z,86.80
2022-08-17T20:21:59.255Z,87.20
2022-08-17T20:24:46.877Z,87.90
2022-08-17T20:27:31.581Z,88.70
2022-08-17T20:30:02.132Z,88.50
2022-08-17T20:32:35.806Z,88.30
2022-08-17T20:35:21.725Z,88.20
2022-08-17T20:38:09.037Z,88.40
2022-08-17T20:40:56.416Z,88.50
2022-08-17T20:43:32.998Z,88.50
2022-08-17T20:46:05.620Z,88.10
2022-08-17T20:48:39.710Z,88.00
2022-08-17T20:51:42.108Z,88.30
2022-08-17T20:54:31.687Z,88.50
2022-08-17T20:57:01.187Z,89.30
2022-08-17T20:59:30.664Z,89.50
2022-08-17T21:02:18.483Z,89.20
2022-08-17T21:05:01.022Z,89.20
2022-08-17T21:07:42.945Z,89.60
2022-08-17T21:10:23.751Z,89.50
2022-08-17T21:13:16.714Z,89.80
2022-08-17T21:15:55.068Z,90.40
2022-08-17T21:18:23.536Z,90.60
2022-08-17T21:21:14.064Z,90.20
2022-08-17T21:23:56.238Z,91.00
2022-08-17T21:26:50.491Z,91.80
2022-08-17T21:29:32.531Z,92.20
2022-08-17T21:32:05.311Z,92.20
2022-08-17T21:34:36.760Z,92.20
2022-08-17T21:37:30.481Z,92.20
2022-08-17T21:40:02.532Z,92.20
2022-08-17T21:42:34.798Z,92.10
2022-08-17T21:45:21.544Z,92.10
2022-08-17T21:47:51.396Z,91.90
2022-08-17T21:50:25.406Z,91.70
2022-08-17T21:52:54.769Z,91.40
2022-08-17T21:55:30.121Z,91.10
2022-08-17T21:58:13.518Z,90.80
2022-08-17T22:00:44.947Z,91.20
2022-08-17T22:03:24.592Z,91.70
2022-08-17T22:05:52.291Z,92.00
2022-08-17T22:08:22.835Z,91.90
2022-08-17T22:10:51.741Z,92.20
2022-08-17T22:13:23.436Z,92.20
2022-08-17T22:16:15.640Z,92.00
2022-08-17T22:18:54.904Z,92.20
2022-08-17T22:21:22.454Z,92.20
2022-08-17T22:24:05.392Z,92.20
2022-08-17T22:27:03.238Z,92.20
2022-08-17T22:29:58.422Z,92.20
2022-08-17T22:32:44.922Z,92.20
2022-08-17T22:35:31.654Z,92.20
2022-08-17T22:38:20.799Z,92.20
2022-08-17T22:40:54.954Z,92.20
2022-08-17T22:43:26.361Z,92.20
2022-08-17T22:45:57.709Z,92.20
2022-08-17T22:48:28.409Z,92.20
2022-08-17T22:51:14.546Z,92.20
2022-08-17T22:54:10.391Z,92.20
2022-08-17T22:56:57.328Z,92.20
2022-08-17T22:59:47.809Z,92.20
2022-08-17T23:02:28.298Z,92.20
2022-08-17T23:05:11.764Z,92.20
2022-08-17T23:07:40.090Z,92.20
2022-08-17T23:10:10.325Z,92.20
2022-08-17T23:12:41.129Z,92.20
2022-08-17T23:15:16.909Z,92.20
2022-08-17T23:17:45.383Z,92.20
2022-08-17T23:20:15.326Z,92.20
2022-08-17T23:22:51.288Z,92.20
2022-08-17T23:25:27.507Z,92.20
2022-08-17T23:27:55.582Z,92.20
2022-08-17T23:30:25.870Z,92.20
2022-08-17T23:32:54.677Z,92.20
2022-08-17T23:35:40.080Z,92.20
2022-08-17T23:38:12.577Z,92.20
2022-08-17T23:40:40.891Z,92.20
2022-08-17T23:43:23.709Z,92.20
2022-08-17T23:46:01.248Z,92.20
2022-08-17T23:48:35.678Z,92.20
2022-08-17T23:51:08.907Z,92.20
2022-08-17T23:53:39.203Z,92.20
2022-08-17T23:56:10.169Z,92.20
2022-08-17T23:58:43.585Z,92.20
